Time;durP1;ratioP1;P1;durP2;ratioP2;P2;SDS_P1;SDS_P2;PMS_P1;PMS_P2;Temp;Humidity;BMP_temperature;BMP_pressure;BME280_temperature;BME280_humidity;BME280_pressure;Samples;Min_cycle;Max_cycle;Signal;HPM_P1;HPM_P2
2023/07/04 00:01:41;;;;;;;;;;;;;;;;;;5111362;28;19956;-69
2023/07/04 00:06:44;;;;;;;;;;;;;;;;;;5112081;27;19916;-69
2023/07/04 00:09:41;;;;;;;;;;;;;;;;;;5091193;28;19923;-69
2023/07/04 00:12:08;;;;;;;;;;;;;;;;;;5090063;28;19999;-69
2023/07/04 00:18:11;;;;;;;;;;;;;;;;;;5112192;27;19916;-69
2023/07/04 00:25:48;;;;;;;;;;;;;;;;;;5072136;28;19923;-69
2023/07/04 00:30:57;;;;;;;;;;;;;;;;;;5112045;27;20380;-69
2023/07/04 00:33:23;;;;;;;;;;;;;;;;;;5111799;28;19943;-69
2023/07/04 00:35:49;;;;;;;;;;;;;;;;;;5111307;28;19915;-68
2023/07/04 00:38:16;;;;;;;;;;;;;;;;;;5111688;28;19908;-68
2023/07/04 00:40:43;;;;;;;;;;;;;;;;;;5111611;28;19908;-69
2023/07/04 00:46:37;;;;;;;;;;;;;;;;;;5071775;28;20284;-68
2023/07/04 00:50:38;;;;;;;;;;;;;;;;;;5111900;27;19915;-69
2023/07/04 00:53:04;;;;;;;;;;;;;;;;;;5110524;28;20352;-69
2023/07/04 00:55:30;;;;;;;;;;;;;;;;;;5112011;28;19942;-69
2023/07/04 01:00:14;;;;;;;;;;;;;;;;;;5091951;28;19916;-69
2023/07/04 01:08:09;;;;;;;;;;;;;;;;;;5112240;27;20303;-69
2023/07/04 01:11:06;;;;;;;;;;;;;;;;;;5153129;27;19998;-69
2023/07/04 01:13:35;;;;;;;;;;;;;;;;;;5153199;27;20382;-69
2023/07/04 01:17:09;;;;;;;;;;;;;;;;;;5174386;27;20377;-70
2023/07/04 01:21:39;;;;;;;;;;;;;;;;;;5091621;27;19913;-69
2023/07/04 01:29:23;;;;;;;;;;;;;;;;;;5091581;28;19916;-68
2023/07/04 01:33:27;;;;;;;;;;;;;;;;;;5091264;28;19939;-69
2023/07/04 01:35:53;;;;;;;;;;;;;;;;;;5091620;28;20428;-68
2023/07/04 01:38:20;;;;;;;;;;;;;;;;;;5091319;28;19908;-68
2023/07/04 01:42:12;;;;;;;;;;;;;;;;;;5174247;27;19915;-69
2023/07/04 01:44:38;;;;;;;;;;;;;;;;;;5173735;27;19934;-70
2023/07/04 01:47:04;;;;;;;;;;;;;;;;;;5173265;27;20310;-69
2023/07/04 01:49:56;;;;;;;;;;;;;;;;;;5092280;27;19916;-68
2023/07/04 01:53:19;;;;;;;;;;;;;;;;;;5111806;27;19916;-69
2023/07/04 01:55:45;;;;;;;;;;;;;;;;;;5111718;28;19912;-69
2023/07/04 01:58:10;;;;;;;;;;;;;;;;;;5111690;28;19908;-68
2023/07/04 02:02:52;;;;;;;;;;;;;;;;;;5092042;27;19919;-68
2023/07/04 02:05:19;;;;;;;;;;;;;;;;;;5091403;28;20007;-68
2023/07/04 02:07:45;;;;;;;;;;;;;;;;;;5090856;28;19987;-68
2023/07/04 02:16:40;;;;;;;;;;;;;;;;;;5111822;27;19916;-69
2023/07/04 02:19:06;;;;;;;;;;;;;;;;;;5111754;28;20007;-68
2023/07/04 02:21:31;;;;;;;;;;;;;;;;;;5111307;28;19908;-69
2023/07/04 02:25:25;;;;;;;;;;;;;;;;;;5091568;27;19923;-68
2023/07/04 02:30:38;;;;;;;;;;;;;;;;;;5112248;27;20304;-69
2023/07/04 02:35:14;;;;;;;;;;;;;;;;;;5112154;27;19916;-69
2023/07/04 02:37:48;;;;;;;;;;;;;;;;;;5091404;28;20381;-70
2023/07/04 02:43:18;;;;;;;;;;;;;;;;;;5111455;27;20276;-69
2023/07/04 02:45:44;;;;;;;;;;;;;;;;;;5111761;28;19918;-68
2023/07/04 02:48:10;;;;;;;;;;;;;;;;;;5111791;28;19991;-68
2023/07/04 02:55:13;;;;;;;;;;;;;;;;;;5112141;27;19916;-70
2023/07/04 02:57:39;;;;;;;;;;;;;;;;;;5111343;28;20022;-68
2023/07/04 03:00:44;;;;;;;;;;;;;;;;;;5091828;27;19930;-68
2023/07/04 03:06:09;;;;;;;;;;;;;;;;;;5092061;27;19922;-69
2023/07/04 03:08:47;;;;;;;;;;;;;;;;;;5092200;27;19916;-68
2023/07/04 03:11:12;;;;;;;;;;;;;;;;;;5091048;28;20011;-68
2023/07/04 03:13:38;;;;;;;;;;;;;;;;;;5091303;28;19962;-68
2023/07/04 03:17:33;;;;;;;;;;;;;;;;;;5111647;27;19915;-69
2023/07/04 03:20:41;;;;;;;;;;;;;;;;;;5112720;27;19916;-70
2023/07/04 03:23:07;;;;;;;;;;;;;;;;;;5111790;28;20018;-69
2023/07/04 03:26:53;;;;;;;;;;;;;;;;;;5092113;27;20383;-68
2023/07/04 03:29:53;;;;;;;;;;;;;;;;;;5092394;27;19923;-68
2023/07/04 03:32:19;;;;;;;;;;;;;;;;;;5091001;28;20010;-68
2023/07/04 03:35:04;;;;;;;;;;;;;;;;;;5092195;27;20361;-68
2023/07/04 03:39:41;;;;;;;;;;;;;;;;;;5091405;27;19923;-68
2023/07/04 03:42:07;;;;;;;;;;;;;;;;;;5091600;28;19919;-68
2023/07/04 03:48:10;;;;;;;;;;;;;;;;;;5112445;27;20364;-68
2023/07/04 03:50:38;;;;;;;;;;;;;;;;;;5111782;28;19912;-68
2023/07/04 03:53:04;;;;;;;;;;;;;;;;;;5111315;28;19999;-68
2023/07/04 03:57:53;;;;;;;;;;;;;;;;;;5092113;27;19923;-68
2023/07/04 04:00:19;;;;;;;;;;;;;;;;;;5091451;28;19999;-68
2023/07/04 04:02:45;;;;;;;;;;;;;;;;;;5091353;28;19984;-68
2023/07/04 04:07:32;;;;;;;;;;;;;;;;;;5111816;27;19916;-68
2023/07/04 04:12:32;;;;;;;;;;;;;;;;;;5153577;27;20009;-69
2023/07/04 04:14:58;;;;;;;;;;;;;;;;;;5152567;27;19949;-69
2023/07/04 04:17:24;;;;;;;;;;;;;;;;;;5152906;27;19939;-69
2023/07/04 04:19:50;;;;;;;;;;;;;;;;;;5152764;27;19915;-69
2023/07/04 04:22:16;;;;;;;;;;;;;;;;;;5152294;27;19911;-69
2023/07/04 04:24:42;;;;;;;;;;;;;;;;;;5152721;27;19951;-69
2023/07/04 04:27:11;;;;;;;;;;;;;;;;;;5152687;27;19907;-69
2023/07/04 04:32:16;;;;;;;;;;;;;;;;;;5092103;27;19923;-69
2023/07/04 04:34:42;;;;;;;;;;;;;;;;;;5091123;28;20436;-69
2023/07/04 04:37:08;;;;;;;;;;;;;;;;;;5091327;28;19908;-69
2023/07/04 04:39:34;;;;;;;;;;;;;;;;;;5091330;28;19915;-69
2023/07/04 04:42:00;;;;;;;;;;;;;;;;;;5090915;28;19909;-69
2023/07/04 04:44:26;;;;;;;;;;;;;;;;;;5091829;28;19959;-69
2023/07/04 04:49:11;;;;;;;;;;;;;;;;;;5152841;27;19998;-68
2023/07/04 04:51:37;;;;;;;;;;;;;;;;;;5152930;27;19969;-69
2023/07/04 04:54:02;;;;;;;;;;;;;;;;;;5152814;27;19912;-69
2023/07/04 04:58:11;;;;;;;;;;;;;;;;;;5091617;27;19917;-68
2023/07/04 05:00:37;;;;;;;;;;;;;;;;;;5091569;28;20007;-68
2023/07/04 05:05:19;;;;;;;;;;;;;;;;;;5092193;28;19926;-69
2023/07/04 05:09:00;;;;;;;;;;;;;;;;;;5092087;28;19917;-68
2023/07/04 05:11:26;;;;;;;;;;;;;;;;;;5091214;28;19999;-68
2023/07/04 05:16:19;;;;;;;;;;;;;;;;;;5111921;27;19915;-69
2023/07/04 05:18:45;;;;;;;;;;;;;;;;;;5111514;28;20371;-69
2023/07/04 05:23:44;;;;;;;;;;;;;;;;;;5112531;27;20356;-69
2023/07/04 05:26:10;;;;;;;;;;;;;;;;;;5111381;28;20002;-68
2023/07/04 05:28:36;;;;;;;;;;;;;;;;;;5111705;28;19908;-69
2023/07/04 05:33:04;;;;;;;;;;;;;;;;;;5111441;27;19916;-69
2023/07/04 05:35:30;;;;;;;;;;;;;;;;;;5112079;28;20000;-69
2023/07/04 05:38:19;;;;;;;;;;;;;;;;;;5087736;27;19916;-66
2023/07/04 05:40:45;;;;;;;;;;;;;;;;;;5089912;28;20467;-66
2023/07/04 05:43:11;;;;;;;;;;;;;;;;;;5091425;28;19948;-66
2023/07/04 05:45:39;;;;;;;;;;;;;;;;;;5079159;28;19951;-65
2023/07/04 05:53:44;;;;;;;;;;;;;;;;;;5090289;27;19923;-65
2023/07/04 05:56:10;;;;;;;;;;;;;;;;;;5090508;28;20011;-65
2023/07/04 05:58:36;;;;;;;;;;;;;;;;;;5090408;28;19908;-64
2023/07/04 06:01:02;;;;;;;;;;;;;;;;;;5089961;28;19909;-67
2023/07/04 06:03:28;;;;;;;;;;;;;;;;;;5090111;28;19958;-65
2023/07/04 06:07:21;;;;;;;;;;;;;;;;;;5090084;27;19920;-66
2023/07/04 06:11:49;;;;;;;;;;;;;;;;;;5113620;27;20398;-64
2023/07/04 06:14:15;;;;;;;;;;;;;;;;;;5110979;28;20007;-65
2023/07/04 06:16:41;;;;;;;;;;;;;;;;;;5110525;28;19951;-64
2023/07/04 06:19:07;;;;;;;;;;;;;;;;;;5110490;28;19915;-66
2023/07/04 06:21:58;;;;;;;;;;;;;;;;;;5087361;28;20386;-65
2023/07/04 06:26:01;;;;;;;;;;;;;;;;;;5108941;27;20398;-65
2023/07/04 06:28:27;;;;;;;;;;;;;;;;;;5106186;28;19919;-64
2023/07/04 06:30:53;;;;;;;;;;;;;;;;;;5109202;28;19912;-64
2023/07/04 06:37:42;;;;;;;;;;;;;;;;;;5108105;27;19926;-65
2023/07/04 06:40:08;;;;;;;;;;;;;;;;;;5109276;28;19912;-65
2023/07/04 06:42:34;;;;;;;;;;;;;;;;;;5106988;28;19966;-64
2023/07/04 06:45:00;;;;;;;;;;;;;;;;;;5109573;27;19943;-65
2023/07/04 06:47:39;;;;;;;;;;;;;;;;;;5128806;27;19912;-65
2023/07/04 06:50:05;;;;;;;;;;;;;;;;;;5088321;28;19917;-67
2023/07/04 06:52:31;;;;;;;;;;;;;;;;;;5089327;28;19924;-64
2023/07/04 06:54:57;;;;;;;;;;;;;;;;;;5121878;28;19912;-65
2023/07/04 06:57:23;;;;;;;;;;;;;;;;;;5088942;28;19913;-65
2023/07/04 07:02:24;;;;;;;;;;;;;;;;;;5140387;27;19919;-66
2023/07/04 07:04:50;;;;;;;;;;;;;;;;;;5129938;27;19911;-66
2023/07/04 07:09:51;;;;;;;;;;;;;;;;;;5108976;27;19938;-65
2023/07/04 07:12:17;;;;;;;;;;;;;;;;;;5108616;28;19916;-66
2023/07/04 07:14:43;;;;;;;;;;;;;;;;;;5108385;28;19908;-66
2023/07/04 07:17:08;;;;;;;;;;;;;;;;;;5108680;28;19916;-66
2023/07/04 07:19:34;;;;;;;;;;;;;;;;;;5109932;28;19911;-67
2023/07/04 07:22:00;;;;;;;;;;;;;;;;;;5109366;28;19912;-67
2023/07/04 07:24:26;;;;;;;;;;;;;;;;;;5108896;28;20003;-68
2023/07/04 07:26:52;;;;;;;;;;;;;;;;;;5109011;28;20280;-66
2023/07/04 07:29:18;;;;;;;;;;;;;;;;;;5108424;28;19924;-65
2023/07/04 07:32:35;;;;;;;;;;;;;;;;;;5017462;27;3273713;-65
2023/07/04 07:35:01;;;;;;;;;;;;;;;;;;5108026;28;19912;-64
2023/07/04 07:37:27;;;;;;;;;;;;;;;;;;5117424;27;20394;-65
2023/07/04 07:39:53;;;;;;;;;;;;;;;;;;5120414;28;19912;-66
2023/07/04 07:43:24;;;;;;;;;;;;;;;;;;5081750;28;19916;-65
2023/07/04 07:45:50;;;;;;;;;;;;;;;;;;5068429;28;19913;-66
2023/07/04 07:48:17;;;;;;;;;;;;;;;;;;5066889;28;19943;-66
2023/07/04 07:50:43;;;;;;;;;;;;;;;;;;5068450;28;19909;-64
2023/07/04 07:53:09;;;;;;;;;;;;;;;;;;5067815;28;20364;-67
2023/07/04 07:55:35;;;;;;;;;;;;;;;;;;5070133;28;20361;-66
2023/07/04 07:58:01;;;;;;;;;;;;;;;;;;5069346;28;20419;-65
2023/07/04 08:00:27;;;;;;;;;;;;;;;;;;5068814;28;19913;-65
2023/07/04 08:02:53;;;;;;;;;;;;;;;;;;5069386;28;19925;-65
2023/07/04 08:05:19;;;;;;;;;;;;;;;;;;5068095;28;19911;-64
2023/07/04 08:08:00;;;;;;;;;;;;;;;;;;5035415;27;2669691;-66
2023/07/04 08:12:40;;;;;;;;;;;;;;;;;;5088570;27;20364;-64
2023/07/04 08:15:06;;;;;;;;;;;;;;;;;;5090542;28;19960;-66
2023/07/04 08:17:31;;;;;;;;;;;;;;;;;;5090625;28;19951;-66
2023/07/04 08:19:57;;;;;;;;;;;;;;;;;;5089156;28;19969;-65
2023/07/04 08:22:23;;;;;;;;;;;;;;;;;;5090731;28;19958;-66
2023/07/04 08:30:46;;;;;;;;;;;;;;;;;;5090894;27;19917;-65
2023/07/04 08:33:12;;;;;;;;;;;;;;;;;;5089567;28;19916;-65
2023/07/04 08:35:38;;;;;;;;;;;;;;;;;;5089896;28;19909;-65
2023/07/04 08:38:42;;;;;;;;;;;;;;;;;;5070343;28;19923;-64
2023/07/04 08:41:08;;;;;;;;;;;;;;;;;;5068478;28;20028;-65
2023/07/04 08:43:41;;;;;;;;;;;;;;;;;;5062773;28;19956;-65
2023/07/04 08:46:10;;;;;;;;;;;;;;;;;;5056354;28;19913;-66
2023/07/04 08:48:41;;;;;;;;;;;;;;;;;;5044328;28;19913;-66
2023/07/04 08:51:07;;;;;;;;;;;;;;;;;;5055996;28;19913;-66
2023/07/04 08:59:05;;;;;;;;;;;;;;;;;;5110998;27;19922;-66
2023/07/04 09:01:31;;;;;;;;;;;;;;;;;;5097211;28;19912;-64
2023/07/04 09:04:51;;;;;;;;;;;;;;;;;;5111100;27;19920;-64
2023/07/04 09:07:16;;;;;;;;;;;;;;;;;;5111087;28;19912;-64
2023/07/04 09:09:42;;;;;;;;;;;;;;;;;;5110608;28;19915;-64
2023/07/04 09:12:08;;;;;;;;;;;;;;;;;;5110961;28;19919;-64
2023/07/04 09:14:34;;;;;;;;;;;;;;;;;;5114831;28;19908;-65
2023/07/04 09:17:00;;;;;;;;;;;;;;;;;;5119300;28;20295;-65
2023/07/04 09:19:27;;;;;;;;;;;;;;;;;;5121141;28;19908;-64
2023/07/04 09:21:54;;;;;;;;;;;;;;;;;;5110691;28;20372;-64
2023/07/04 09:24:20;;;;;;;;;;;;;;;;;;5109989;28;19959;-65
2023/07/04 09:26:46;;;;;;;;;;;;;;;;;;5109426;28;20405;-64
2023/07/04 09:29:12;;;;;;;;;;;;;;;;;;5110778;28;20396;-64
2023/07/04 09:33:49;;;;;;;;;;;;;;;;;;5118464;27;19921;-64
2023/07/04 09:36:15;;;;;;;;;;;;;;;;;;5109870;27;19974;-64
2023/07/04 09:38:41;;;;;;;;;;;;;;;;;;5108649;28;19955;-65
2023/07/04 09:41:07;;;;;;;;;;;;;;;;;;5110204;28;19912;-65
2023/07/04 09:43:33;;;;;;;;;;;;;;;;;;5107259;28;20304;-65
2023/07/04 09:45:59;;;;;;;;;;;;;;;;;;5109756;28;20566;-64
2023/07/04 09:48:25;;;;;;;;;;;;;;;;;;5108355;28;20387;-65
2023/07/04 09:50:51;;;;;;;;;;;;;;;;;;5106938;28;19920;-64
2023/07/04 09:53:18;;;;;;;;;;;;;;;;;;5108382;28;19920;-65
2023/07/04 09:55:44;;;;;;;;;;;;;;;;;;5108058;28;20399;-65
2023/07/04 09:58:10;;;;;;;;;;;;;;;;;;5107700;28;19912;-65
2023/07/04 10:00:36;;;;;;;;;;;;;;;;;;5126298;28;19935;-64
2023/07/04 10:03:02;;;;;;;;;;;;;;;;;;5107402;28;20588;-64
2023/07/04 10:05:28;;;;;;;;;;;;;;;;;;5109340;28;19912;-65
2023/07/04 10:09:30;;;;;;;;;;;;;;;;;;5149721;27;19922;-65
2023/07/04 10:11:56;;;;;;;;;;;;;;;;;;5150514;27;20321;-65
2023/07/04 10:16:02;;;;;;;;;;;;;;;;;;5087297;27;19919;-65
2023/07/04 10:18:28;;;;;;;;;;;;;;;;;;5086165;28;19913;-65
2023/07/04 10:20:55;;;;;;;;;;;;;;;;;;5088592;28;20280;-64
2023/07/04 10:23:22;;;;;;;;;;;;;;;;;;5090097;28;19916;-64
2023/07/04 10:25:48;;;;;;;;;;;;;;;;;;5090794;28;19915;-64
2023/07/04 10:28:14;;;;;;;;;;;;;;;;;;5090077;28;19908;-65
2023/07/04 10:30:40;;;;;;;;;;;;;;;;;;5090841;28;19915;-65
2023/07/04 10:33:06;;;;;;;;;;;;;;;;;;5089996;28;19912;-65
2023/07/04 10:35:31;;;;;;;;;;;;;;;;;;5090117;28;19920;-65
2023/07/04 10:37:57;;;;;;;;;;;;;;;;;;5090401;28;19908;-65
2023/07/04 10:40:24;;;;;;;;;;;;;;;;;;5089645;28;19952;-65
2023/07/04 10:42:50;;;;;;;;;;;;;;;;;;5090163;28;19967;-65
2023/07/04 10:45:16;;;;;;;;;;;;;;;;;;5090529;28;20266;-66
2023/07/04 10:47:42;;;;;;;;;;;;;;;;;;5090074;28;19935;-66
2023/07/04 10:50:08;;;;;;;;;;;;;;;;;;5089532;28;19999;-66
2023/07/04 10:52:34;;;;;;;;;;;;;;;;;;5089412;28;19912;-64
2023/07/04 10:55:00;;;;;;;;;;;;;;;;;;5089090;28;19921;-64
2023/07/04 10:57:26;;;;;;;;;;;;;;;;;;5088675;28;19912;-65
2023/07/04 10:59:52;;;;;;;;;;;;;;;;;;5089975;28;19970;-65
2023/07/04 11:02:18;;;;;;;;;;;;;;;;;;5089313;28;20288;-66
2023/07/04 11:04:45;;;;;;;;;;;;;;;;;;5090020;28;19909;-65
2023/07/04 11:07:11;;;;;;;;;;;;;;;;;;5089676;28;19916;-66
2023/07/04 11:09:37;;;;;;;;;;;;;;;;;;5089037;28;20292;-66
2023/07/04 11:12:03;;;;;;;;;;;;;;;;;;5087490;28;19963;-65
2023/07/04 11:14:29;;;;;;;;;;;;;;;;;;5093411;28;19920;-67
2023/07/04 11:16:55;;;;;;;;;;;;;;;;;;5102017;28;19919;-66
2023/07/04 11:19:21;;;;;;;;;;;;;;;;;;5090596;28;19952;-63
2023/07/04 11:21:47;;;;;;;;;;;;;;;;;;5088820;28;19995;-65
2023/07/04 11:24:13;;;;;;;;;;;;;;;;;;5087307;28;20428;-66
2023/07/04 11:26:39;;;;;;;;;;;;;;;;;;5079096;28;20389;-65
2023/07/04 11:29:06;;;;;;;;;;;;;;;;;;5075583;28;19912;-66
2023/07/04 11:31:33;;;;;;;;;;;;;;;;;;5075213;28;20388;-66
2023/07/04 11:34:00;;;;;;;;;;;;;;;;;;5075190;28;20292;-65
2023/07/04 11:36:26;;;;;;;;;;;;;;;;;;5069439;28;20311;-64
2023/07/04 11:38:52;;;;;;;;;;;;;;;;;;5075676;28;19908;-63
2023/07/04 11:41:18;;;;;;;;;;;;;;;;;;5079475;28;20286;-63
2023/07/04 11:43:45;;;;;;;;;;;;;;;;;;5075255;28;19943;-64
2023/07/04 11:46:11;;;;;;;;;;;;;;;;;;5074719;28;20019;-65
2023/07/04 11:48:37;;;;;;;;;;;;;;;;;;5074982;28;19952;-64
2023/07/04 11:51:04;;;;;;;;;;;;;;;;;;5073350;28;19912;-64
2023/07/04 11:53:30;;;;;;;;;;;;;;;;;;5073604;28;19913;-65
2023/07/04 11:55:56;;;;;;;;;;;;;;;;;;5074586;28;20018;-65
2023/07/04 11:58:22;;;;;;;;;;;;;;;;;;5073967;28;19913;-65
2023/07/04 12:00:48;;;;;;;;;;;;;;;;;;5074411;28;19962;-65
2023/07/04 12:03:13;;;;;;;;;;;;;;;;;;5074789;28;19913;-64
2023/07/04 12:05:39;;;;;;;;;;;;;;;;;;5074506;28;19916;-65
2023/07/04 12:08:06;;;;;;;;;;;;;;;;;;5075521;28;19954;-65
2023/07/04 12:10:32;;;;;;;;;;;;;;;;;;5075094;28;19960;-65
2023/07/04 12:12:57;;;;;;;;;;;;;;;;;;5075210;28;19944;-65
2023/07/04 12:15:23;;;;;;;;;;;;;;;;;;5090335;28;19927;-65
2023/07/04 12:17:50;;;;;;;;;;;;;;;;;;5095565;28;19916;-64
2023/07/04 12:20:16;;;;;;;;;;;;;;;;;;5076953;28;19908;-65
2023/07/04 12:22:44;;;;;;;;;;;;;;;;;;5095416;28;19994;-64
2023/07/04 12:25:09;;;;;;;;;;;;;;;;;;5093816;28;19938;-66
2023/07/04 12:27:35;;;;;;;;;;;;;;;;;;5094948;28;19908;-65
2023/07/04 12:30:02;;;;;;;;;;;;;;;;;;5094884;28;19918;-65
2023/07/04 12:32:28;;;;;;;;;;;;;;;;;;5076913;28;20030;-67
2023/07/04 12:34:54;;;;;;;;;;;;;;;;;;5076903;28;20287;-67
2023/07/04 12:37:23;;;;;;;;;;;;;;;;;;5094828;28;19908;-67
2023/07/04 12:39:49;;;;;;;;;;;;;;;;;;5095618;28;20003;-67
2023/07/04 12:42:15;;;;;;;;;;;;;;;;;;5076885;28;19951;-67
2023/07/04 12:44:41;;;;;;;;;;;;;;;;;;5095248;28;20076;-67
2023/07/04 12:47:06;;;;;;;;;;;;;;;;;;5094854;28;19908;-67
2023/07/04 12:49:32;;;;;;;;;;;;;;;;;;5077032;28;19912;-67
2023/07/04 12:51:59;;;;;;;;;;;;;;;;;;5076992;28;19908;-67
2023/07/04 12:54:25;;;;;;;;;;;;;;;;;;5094621;28;19916;-67
2023/07/04 12:56:51;;;;;;;;;;;;;;;;;;5094999;28;19987;-67
2023/07/04 12:59:17;;;;;;;;;;;;;;;;;;5095032;28;19954;-67
2023/07/04 13:01:42;;;;;;;;;;;;;;;;;;5094548;28;19908;-67
2023/07/04 13:04:08;;;;;;;;;;;;;;;;;;5094983;28;19908;-67
2023/07/04 13:06:34;;;;;;;;;;;;;;;;;;5094842;28;19908;-68
2023/07/04 13:09:00;;;;;;;;;;;;;;;;;;5094615;28;20316;-68
2023/07/04 13:11:26;;;;;;;;;;;;;;;;;;5095219;28;20279;-68
2023/07/04 13:13:52;;;;;;;;;;;;;;;;;;5094365;28;20437;-68
2023/07/04 13:16:18;;;;;;;;;;;;;;;;;;5094352;28;19912;-68
2023/07/04 13:18:44;;;;;;;;;;;;;;;;;;5095318;28;20011;-68
2023/07/04 13:21:10;;;;;;;;;;;;;;;;;;5094622;28;19954;-68
2023/07/04 13:23:36;;;;;;;;;;;;;;;;;;5094132;28;20364;-68
2023/07/04 13:26:02;;;;;;;;;;;;;;;;;;5094762;28;19908;-68
2023/07/04 13:28:28;;;;;;;;;;;;;;;;;;5094528;28;19908;-68
2023/07/04 13:30:54;;;;;;;;;;;;;;;;;;5094239;28;20368;-68
2023/07/04 13:33:20;;;;;;;;;;;;;;;;;;5094441;28;20360;-68
2023/07/04 13:35:46;;;;;;;;;;;;;;;;;;5094312;28;19916;-68
2023/07/04 13:38:12;;;;;;;;;;;;;;;;;;5093404;28;19915;-68
2023/07/04 13:40:38;;;;;;;;;;;;;;;;;;5094295;28;19908;-68
2023/07/04 13:43:05;;;;;;;;;;;;;;;;;;5094224;28;19938;-67
2023/07/04 13:45:30;;;;;;;;;;;;;;;;;;5093823;28;20068;-68
2023/07/04 13:47:56;;;;;;;;;;;;;;;;;;5094191;28;19915;-68
2023/07/04 13:50:24;;;;;;;;;;;;;;;;;;5093767;28;19908;-68
2023/07/04 13:52:50;;;;;;;;;;;;;;;;;;5094134;28;19915;-68
2023/07/04 13:55:16;;;;;;;;;;;;;;;;;;5094064;28;19916;-68
2023/07/04 13:57:43;;;;;;;;;;;;;;;;;;5093727;28;19908;-68
2023/07/04 14:00:08;;;;;;;;;;;;;;;;;;5093998;28;19908;-68
2023/07/04 14:02:34;;;;;;;;;;;;;;;;;;5094002;28;19909;-68
2023/07/04 14:05:00;;;;;;;;;;;;;;;;;;5093771;28;19916;-68
2023/07/04 14:07:26;;;;;;;;;;;;;;;;;;5094732;28;19908;-68
2023/07/04 14:09:52;;;;;;;;;;;;;;;;;;5094020;28;19915;-68
2023/07/04 14:12:18;;;;;;;;;;;;;;;;;;5093620;28;19909;-68
2023/07/04 14:14:44;;;;;;;;;;;;;;;;;;5093611;28;20351;-68
2023/07/04 14:17:10;;;;;;;;;;;;;;;;;;5093870;28;19954;-68
2023/07/04 14:19:36;;;;;;;;;;;;;;;;;;5093471;28;19915;-68
2023/07/04 14:22:02;;;;;;;;;;;;;;;;;;5093886;28;20027;-68
2023/07/04 14:24:28;;;;;;;;;;;;;;;;;;5093707;28;19908;-68
2023/07/04 14:26:54;;;;;;;;;;;;;;;;;;5093274;28;19962;-67
2023/07/04 14:29:20;;;;;;;;;;;;;;;;;;5093756;28;20006;-67
2023/07/04 14:31:46;;;;;;;;;;;;;;;;;;5093876;28;19915;-67
2023/07/04 14:34:12;;;;;;;;;;;;;;;;;;5093313;28;19923;-68
2023/07/04 14:36:38;;;;;;;;;;;;;;;;;;5093772;28;20006;-67
2023/07/04 14:39:04;;;;;;;;;;;;;;;;;;5093727;28;19908;-67
2023/07/04 14:41:30;;;;;;;;;;;;;;;;;;5075230;28;19908;-68
2023/07/04 14:43:56;;;;;;;;;;;;;;;;;;5093585;28;19994;-68
2023/07/04 14:46:22;;;;;;;;;;;;;;;;;;5093705;28;19908;-68
2023/07/04 14:48:48;;;;;;;;;;;;;;;;;;5093165;28;19912;-68
2023/07/04 14:51:14;;;;;;;;;;;;;;;;;;5093745;28;19916;-67
2023/07/04 14:53:40;;;;;;;;;;;;;;;;;;5093426;28;19908;-66
2023/07/04 14:56:06;;;;;;;;;;;;;;;;;;5093525;28;20364;-66
2023/07/04 14:58:32;;;;;;;;;;;;;;;;;;5094065;28;19908;-67
2023/07/04 15:00:58;;;;;;;;;;;;;;;;;;5093971;28;19915;-66
2023/07/04 15:03:24;;;;;;;;;;;;;;;;;;5097236;28;19908;-66
2023/07/04 15:05:50;;;;;;;;;;;;;;;;;;5097222;28;19908;-67
2023/07/04 15:08:16;;;;;;;;;;;;;;;;;;5078462;28;19976;-67
2023/07/04 15:10:42;;;;;;;;;;;;;;;;;;5097105;28;20321;-66
2023/07/04 15:13:08;;;;;;;;;;;;;;;;;;5078878;28;20280;-66
2023/07/04 15:15:34;;;;;;;;;;;;;;;;;;5096201;28;19927;-67
2023/07/04 15:18:00;;;;;;;;;;;;;;;;;;5096941;28;20346;-68
2023/07/04 15:20:26;;;;;;;;;;;;;;;;;;5096791;28;19908;-67
2023/07/04 15:22:52;;;;;;;;;;;;;;;;;;5096316;28;19946;-66
2023/07/04 15:25:18;;;;;;;;;;;;;;;;;;5096859;28;19994;-68
2023/07/04 15:27:43;;;;;;;;;;;;;;;;;;5096888;28;19908;-66
2023/07/04 15:30:09;;;;;;;;;;;;;;;;;;5096439;28;19992;-66
2023/07/04 15:32:35;;;;;;;;;;;;;;;;;;5097034;28;19908;-68
2023/07/04 15:35:01;;;;;;;;;;;;;;;;;;5078408;28;20390;-68
2023/07/04 15:37:27;;;;;;;;;;;;;;;;;;5096342;28;20261;-67
2023/07/04 15:39:53;;;;;;;;;;;;;;;;;;5096559;28;20279;-67
2023/07/04 15:42:19;;;;;;;;;;;;;;;;;;5096584;28;20339;-67
2023/07/04 15:44:45;;;;;;;;;;;;;;;;;;5096133;28;20307;-67
2023/07/04 15:47:11;;;;;;;;;;;;;;;;;;5096482;28;20273;-67
2023/07/04 15:49:37;;;;;;;;;;;;;;;;;;5078203;28;20287;-66
2023/07/04 15:52:03;;;;;;;;;;;;;;;;;;5096033;28;19950;-67
2023/07/04 15:54:29;;;;;;;;;;;;;;;;;;5096177;28;19922;-67
2023/07/04 15:56:55;;;;;;;;;;;;;;;;;;5077780;28;19908;-67
2023/07/04 15:59:21;;;;;;;;;;;;;;;;;;5096267;28;20003;-67
2023/07/04 16:01:47;;;;;;;;;;;;;;;;;;5077968;28;19915;-67
2023/07/04 16:04:13;;;;;;;;;;;;;;;;;;5077584;28;20317;-67
2023/07/04 16:06:39;;;;;;;;;;;;;;;;;;5096223;28;20383;-67
2023/07/04 16:09:05;;;;;;;;;;;;;;;;;;5077909;28;20306;-66
2023/07/04 16:11:32;;;;;;;;;;;;;;;;;;5095770;28;19920;-66
2023/07/04 16:13:58;;;;;;;;;;;;;;;;;;5095642;28;19996;-66
2023/07/04 16:16:24;;;;;;;;;;;;;;;;;;5096002;28;20002;-67
2023/07/04 16:18:49;;;;;;;;;;;;;;;;;;5095445;28;19915;-67
2023/07/04 16:21:15;;;;;;;;;;;;;;;;;;5095878;28;19908;-66
2023/07/04 16:23:41;;;;;;;;;;;;;;;;;;5095763;28;19912;-66
2023/07/04 16:26:07;;;;;;;;;;;;;;;;;;5095322;28;19934;-67
2023/07/04 16:28:33;;;;;;;;;;;;;;;;;;5096020;28;19908;-67
2023/07/04 16:30:59;;;;;;;;;;;;;;;;;;5095688;28;19909;-67
2023/07/04 16:33:25;;;;;;;;;;;;;;;;;;5095212;28;20288;-67
2023/07/04 16:35:51;;;;;;;;;;;;;;;;;;5095493;28;20007;-67
2023/07/04 16:38:17;;;;;;;;;;;;;;;;;;5095468;28;20384;-68
2023/07/04 16:40:43;;;;;;;;;;;;;;;;;;5076955;28;20280;-67
2023/07/04 16:43:09;;;;;;;;;;;;;;;;;;5095453;28;20365;-67
2023/07/04 16:45:35;;;;;;;;;;;;;;;;;;5095474;28;20364;-67
2023/07/04 16:48:02;;;;;;;;;;;;;;;;;;5094971;28;19912;-68
2023/07/04 16:50:28;;;;;;;;;;;;;;;;;;5095278;28;20361;-67
2023/07/04 16:52:53;;;;;;;;;;;;;;;;;;5095235;28;19914;-67
2023/07/04 16:55:19;;;;;;;;;;;;;;;;;;5094794;28;19916;-67
2023/07/04 16:57:45;;;;;;;;;;;;;;;;;;5095298;28;19912;-67
2023/07/04 17:00:11;;;;;;;;;;;;;;;;;;5094779;28;20359;-67
2023/07/04 17:02:37;;;;;;;;;;;;;;;;;;5095414;28;19908;-67
2023/07/04 17:05:03;;;;;;;;;;;;;;;;;;5094987;28;19915;-67
2023/07/04 17:07:29;;;;;;;;;;;;;;;;;;5094576;28;19908;-67
2023/07/04 17:09:55;;;;;;;;;;;;;;;;;;5094984;28;20007;-67
2023/07/04 17:12:21;;;;;;;;;;;;;;;;;;5075249;28;19912;-67
2023/07/04 17:14:47;;;;;;;;;;;;;;;;;;5092025;28;19954;-67
2023/07/04 17:17:13;;;;;;;;;;;;;;;;;;5092674;28;19916;-67
2023/07/04 17:19:39;;;;;;;;;;;;;;;;;;5092949;28;19916;-67
2023/07/04 17:22:05;;;;;;;;;;;;;;;;;;5092199;28;19915;-67
2023/07/04 17:24:31;;;;;;;;;;;;;;;;;;5091847;28;19915;-67
2023/07/04 17:26:58;;;;;;;;;;;;;;;;;;5074322;28;20404;-67
2023/07/04 17:29:24;;;;;;;;;;;;;;;;;;5092049;28;19915;-67
2023/07/04 17:31:50;;;;;;;;;;;;;;;;;;5075213;28;19908;-67
2023/07/04 17:34:16;;;;;;;;;;;;;;;;;;5075899;28;19912;-67
2023/07/04 17:36:42;;;;;;;;;;;;;;;;;;5093865;28;19916;-67
2023/07/04 17:39:08;;;;;;;;;;;;;;;;;;5094588;28;20372;-67
2023/07/04 17:41:34;;;;;;;;;;;;;;;;;;5094849;28;20368;-67
2023/07/04 17:43:59;;;;;;;;;;;;;;;;;;5094030;28;20002;-67
2023/07/04 17:46:25;;;;;;;;;;;;;;;;;;5094246;28;19915;-67
2023/07/04 17:48:52;;;;;;;;;;;;;;;;;;5094128;28;20380;-67
2023/07/04 17:51:17;;;;;;;;;;;;;;;;;;5093733;28;19908;-68
2023/07/04 17:53:43;;;;;;;;;;;;;;;;;;5094110;28;19977;-67
2023/07/04 17:56:09;;;;;;;;;;;;;;;;;;5093925;28;19916;-67
2023/07/04 17:58:35;;;;;;;;;;;;;;;;;;5093235;28;19970;-67
2023/07/04 18:01:01;;;;;;;;;;;;;;;;;;5094018;28;19912;-67
2023/07/04 18:03:27;;;;;;;;;;;;;;;;;;5094089;28;19922;-67
2023/07/04 18:05:54;;;;;;;;;;;;;;;;;;5093687;28;19908;-67
2023/07/04 18:08:19;;;;;;;;;;;;;;;;;;5093884;28;20010;-67
2023/07/04 18:10:45;;;;;;;;;;;;;;;;;;5093474;28;19943;-67
2023/07/04 18:13:11;;;;;;;;;;;;;;;;;;5093764;28;19916;-68
2023/07/04 18:15:37;;;;;;;;;;;;;;;;;;5093346;28;20318;-67
2023/07/04 18:18:03;;;;;;;;;;;;;;;;;;5075362;28;20006;-68
2023/07/04 18:20:29;;;;;;;;;;;;;;;;;;5093677;28;19908;-67
2023/07/04 18:22:55;;;;;;;;;;;;;;;;;;5094050;28;19954;-67
2023/07/04 18:25:21;;;;;;;;;;;;;;;;;;5093339;28;19952;-67
2023/07/04 18:27:47;;;;;;;;;;;;;;;;;;5093678;28;19951;-68
2023/07/04 18:30:13;;;;;;;;;;;;;;;;;;5093601;28;19908;-68
2023/07/04 18:32:39;;;;;;;;;;;;;;;;;;5093153;28;19995;-68
2023/07/04 18:35:05;;;;;;;;;;;;;;;;;;5093645;28;20007;-68
2023/07/04 18:37:31;;;;;;;;;;;;;;;;;;5097242;28;19920;-67
2023/07/04 18:39:57;;;;;;;;;;;;;;;;;;5097255;28;19908;-67
2023/07/04 18:42:23;;;;;;;;;;;;;;;;;;5097718;28;19989;-68
2023/07/04 18:44:49;;;;;;;;;;;;;;;;;;5097674;28;19908;-67
2023/07/04 18:47:15;;;;;;;;;;;;;;;;;;5097255;28;19915;-68
2023/07/04 18:49:41;;;;;;;;;;;;;;;;;;5097476;28;19935;-68
2023/07/04 18:52:07;;;;;;;;;;;;;;;;;;5097490;28;20003;-68
2023/07/04 18:54:33;;;;;;;;;;;;;;;;;;5097074;28;19916;-67
2023/07/04 18:56:59;;;;;;;;;;;;;;;;;;5097494;28;19908;-68
2023/07/04 18:59:25;;;;;;;;;;;;;;;;;;5097350;28;20002;-67
2023/07/04 19:01:52;;;;;;;;;;;;;;;;;;5097100;28;19965;-67
2023/07/04 19:04:18;;;;;;;;;;;;;;;;;;5097241;28;19915;-67